createdAt,value
2023-04-19T01:26:09.229Z,10.60
2023-04-19T02:23:40.615Z,11.20
2023-04-19T03:08:22.011Z,11.80
2023-04-19T04:33:26.770Z,12.00
2023-04-19T04:37:32.132Z,11.90
2023-04-19T04:41:36.077Z,11.80
2023-04-19T04:45:43.157Z,11.60
2023-04-19T05:30:55.786Z,11.40
2023-04-19T05:48:15.062Z,11.50
2023-04-19T05:52:36.803Z,11.50
2023-04-19T06:18:24.829Z,12.30
2023-04-19T06:22:27.434Z,12.70
2023-04-19T06:26:30.217Z,12.90
2023-04-19T06:30:32.964Z,13.00
2023-04-19T06:34:35.822Z,13.40
2023-04-19T06:38:38.855Z,13.60
2023-04-19T06:42:41.464Z,14.00
2023-04-19T06:46:44.083Z,14.30
2023-04-19T06:50:46.636Z,14.50
2023-04-19T06:54:49.857Z,14.70
2023-04-19T06:58:52.435Z,14.90
2023-04-19T07:02:55.278Z,15.20
2023-04-19T07:06:57.954Z,15.40
2023-04-19T07:11:00.618Z,15.70
2023-04-19T07:15:03.887Z,16.10
2023-04-19T07:19:06.638Z,16.50
2023-04-19T07:23:09.601Z,16.70
2023-04-19T07:27:12.338Z,16.80
2023-04-19T07:31:16.362Z,16.70
2023-04-19T07:35:19.573Z,16.90
2023-04-19T07:39:22.293Z,16.90
2023-04-19T07:43:25.061Z,17.00
2023-04-19T07:47:29.853Z,17.10
2023-04-19T07:51:55.232Z,17.30
2023-04-19T07:56:17.077Z,17.70
2023-04-19T08:00:26.618Z,18.00
2023-04-19T08:04:39.622Z,18.20
2023-04-19T08:08:52.222Z,18.30
2023-04-19T08:13:09.351Z,18.50
2023-04-19T12:25:33.166Z,21.50
2023-04-19T15:52:27.747Z,15.20
2023-04-19T16:33:50.066Z,14.50
2023-04-19T17:57:28.405Z,14.00
2023-04-19T18:37:08.901Z,13.70
